»·PEaware :: N515ZT KSMX-KBFL

N515ZT :: KSMX-KBFL

FLIGHT INFORMATION

Flight Status: Arrived
Operator: Privately registered:
United States
More flights under this callsign
Pilot: Marty P. (27464)
Aircraft: BEECH AIRCRAFT BARON
(BE58)
More flights by this aircraft type
Origin: KSMX Santa Maria Pub/Capt Hancock
United States
Destination: KBFL Meadows
United States
More flights between these airports :: More routes between these airports
Route: KSMX FLW FASTO KBFL
File this flight plan on PilotEdge
Remarks: Cat 5 practice
Altitude:
(Current/Filed)
6,500ft
Speed:
(Current/Filed)
180kts
Departed: 11-Jan-20 05:14 PM
Arrived: 11-Jan-20 06:29 PM
Distance/Time
Traveled:
76nm/1:15
Distance/Time
To Go:
Arrived

Flight Plot

Page will automatically refresh every two minutes.

Flight plan parsing failed; only flown route is shown


Map Options




Map Legend


Flown Route
Filed Route
Departure Airport
Arrival Airport
Navaid (VOR, NDB)
Fix

Horizontal Profiles

Position Reports

Time Latitude Longitude Heading Altitude Ground
Speed
11-Jan-20 17:03 34.896951 -120.446145 273 265ft 0kts
11-Jan-20 17:04 34.896951 -120.446145 273 265ft 0kts
11-Jan-20 17:05 34.896951 -120.446145 273 265ft 0kts
11-Jan-20 17:06 34.896951 -120.446145 273 265ft 0kts
11-Jan-20 17:07 34.896951 -120.446145 273 265ft 0kts
11-Jan-20 17:08 34.896954 -120.447326 241 265ft 9kts
11-Jan-20 17:09 34.895650 -120.446796 136 265ft 13kts
11-Jan-20 17:10 34.893961 -120.445200 180 265ft 15kts
11-Jan-20 17:11 34.893449 -120.445212 181 265ft 0kts
11-Jan-20 17:12 34.892796 -120.445656 228 265ft 10kts
11-Jan-20 17:13 34.898670 -120.453034 315 304ft 115kts
11-Jan-20 17:14 34.912522 -120.470682 316 1022ft 130kts
11-Jan-20 17:15 34.927954 -120.483700 4 1942ft 124kts
11-Jan-20 17:16 34.937314 -120.467514 86 2740ft 140kts
11-Jan-20 17:17 34.934906 -120.444131 90 3574ft 137kts
11-Jan-20 17:18 34.932365 -120.422473 90 4310ft 138kts
11-Jan-20 17:19 34.929875 -120.401291 89 5023ft 138kts
11-Jan-20 17:20 34.928607 -120.380859 73 5695ft 132kts
11-Jan-20 17:21 34.933070 -120.358959 58 6463ft 126kts
11-Jan-20 17:22 34.939598 -120.337631 55 7222ft 124kts
11-Jan-20 17:23 34.947037 -120.315247 57 7519ft 154kts
11-Jan-20 17:24 34.955255 -120.289993 59 7561ft 174kts
11-Jan-20 17:25 34.963902 -120.263315 59 7523ft 185kts
11-Jan-20 17:26 34.972738 -120.236172 59 7503ft 188kts
11-Jan-20 17:27 34.981807 -120.208359 59 7498ft 189kts
11-Jan-20 17:28 34.990980 -120.180240 59 7492ft 189kts
11-Jan-20 17:29 35.000988 -120.149544 59 7474ft 189kts
11-Jan-20 17:31 35.010108 -120.121552 59 7471ft 190kts
11-Jan-20 17:32 35.019023 -120.094148 59 7465ft 191kts
11-Jan-20 17:33 35.027679 -120.067515 59 7470ft 191kts
11-Jan-20 17:34 35.036012 -120.041865 59 7460ft 192kts
11-Jan-20 17:35 35.044765 -120.014936 59 7397ft 196kts
11-Jan-20 17:36 35.053610 -119.987595 59 7421ft 193kts
11-Jan-20 17:37 35.062379 -119.960501 59 7408ft 193kts
11-Jan-20 17:38 35.071101 -119.933587 59 7406ft 193kts
11-Jan-20 17:39 35.079747 -119.906885 59 7398ft 194kts
11-Jan-20 17:40 35.088720 -119.879148 59 7396ft 194kts
11-Jan-20 17:41 35.095848 -119.849302 68 7409ft 197kts
11-Jan-20 17:42 35.100992 -119.821947 69 7399ft 199kts
11-Jan-20 17:43 35.106630 -119.791241 69 7408ft 200kts
11-Jan-20 17:44 35.112063 -119.761506 68 7408ft 200kts
11-Jan-20 17:45 35.117589 -119.731224 69 7409ft 200kts
11-Jan-20 17:46 35.122933 -119.701774 69 7416ft 200kts
11-Jan-20 17:47 35.128964 -119.668553 69 7424ft 200kts
11-Jan-20 17:48 35.134412 -119.638393 69 7446ft 199kts
11-Jan-20 17:49 35.139754 -119.608860 69 7470ft 198kts
11-Jan-20 17:50 35.145084 -119.579302 69 7488ft 198kts
11-Jan-20 17:51 35.150979 -119.546858 70 7129ft 213kts
11-Jan-20 17:52 35.156665 -119.515031 70 6743ft 215kts
11-Jan-20 17:52 35.161462 -119.488252 71 6311ft 214kts
11-Jan-20 17:54 35.168004 -119.451772 71 5609ft 208kts
11-Jan-20 17:54 35.172625 -119.425965 71 5299ft 196kts
11-Jan-20 17:55 35.177657 -119.397892 71 5139ft 194kts
11-Jan-20 17:57 35.183262 -119.366412 72 4540ft 186kts
11-Jan-20 17:57 35.186988 -119.345568 73 4070ft 178kts
11-Jan-20 17:58 35.191795 -119.318578 73 3337ft 169kts
11-Jan-20 17:59 35.196758 -119.290960 73 3329ft 191kts
11-Jan-20 18:00 35.201609 -119.263394 73 3413ft 193kts
11-Jan-20 18:01 35.206572 -119.235324 73 3476ft 191kts
11-Jan-20 18:02 35.211719 -119.206265 73 3500ft 183kts
11-Jan-20 18:03 35.217142 -119.175662 73 3494ft 187kts
11-Jan-20 18:04 35.222430 -119.145688 73 3482ft 188kts
11-Jan-20 18:05 35.227584 -119.116428 73 3484ft 188kts
11-Jan-20 18:06 35.232708 -119.087327 73 3485ft 188kts
11-Jan-20 18:07 35.237760 -119.058588 73 3484ft 188kts
11-Jan-20 18:08 35.242723 -119.030312 73 3483ft 188kts
11-Jan-20 18:09 35.247559 -119.002738 73 3468ft 189kts
11-Jan-20 18:10 35.252382 -118.975061 73 3358ft 178kts
11-Jan-20 18:11 35.256910 -118.949130 72 3358ft 162kts
11-Jan-20 18:12 35.260985 -118.925826 72 3408ft 151kts
11-Jan-20 18:13 35.264906 -118.903419 72 3444ft 147kts
11-Jan-20 18:14 35.268844 -118.881314 66 3459ft 146kts
11-Jan-20 18:15 35.283205 -118.871960 338 3491ft 130kts
11-Jan-20 18:16 35.295603 -118.887969 311 3515ft 143kts
11-Jan-20 18:17 35.308972 -118.905685 315 3488ft 150kts
11-Jan-20 18:18 35.326297 -118.923743 321 3172ft 157kts
11-Jan-20 18:19 35.342535 -118.939548 322 2855ft 160kts
11-Jan-20 18:20 35.358360 -118.954923 322 2525ft 162kts
11-Jan-20 18:21 35.374164 -118.969812 318 2087ft 160kts
11-Jan-20 18:22 35.388100 -118.985686 317 1698ft 157kts
11-Jan-20 18:23 35.398629 -119.004169 291 1309ft 164kts
11-Jan-20 18:24 35.406855 -119.023572 313 1198ft 133kts
11-Jan-20 18:25 35.415881 -119.034786 317 968ft 104kts
11-Jan-20 18:26 35.424740 -119.045232 315 723ft 105kts
11-Jan-20 18:27 35.433621 -119.055924 316 510ft 71kts
11-Jan-20 18:28 35.436252 -119.057854 60 510ft 2kts
11-Jan-20 18:29 35.436255 -119.057846 62 510ft 1kts
11-Jan-20 18:30 35.436147 -119.056753 133 510ft 10kts
11-Jan-20 18:31 35.435067 -119.055448 135 510ft 17kts
11-Jan-20 18:32 35.433236 -119.053242 135 510ft 25kts
11-Jan-20 18:33 35.431233 -119.050822 135 510ft 22kts
11-Jan-20 18:34 35.429638 -119.048875 116 510ft 0kts
11-Jan-20 18:35 35.429986 -119.047944 103 510ft 12kts
11-Jan-20 18:36 35.429456 -119.046644 132 510ft 0kts

Navigation Log

Ident Type
Flight plan parsing failed, navigation log unavailable